sensor_id;sensor_type;location;lat;lon;timestamp;P1;P2;P0
27143;PMS1003;14672;50.250;8.312;2023-04-03T00:00:32;14.67;12.67;6.00
27143;PMS1003;14672;50.250;8.312;2023-04-03T00:02:58;15.50;14.50;6.50
27143;PMS1003;14672;50.250;8.312;2023-04-03T00:05:24;15.33;15.33;6.00
27143;PMS1003;14672;50.250;8.312;2023-04-03T00:07:50;9.50;9.50;2.50
27143;PMS1003;14672;50.250;8.312;2023-04-03T00:10:16;12.67;12.00;4.00
27143;PMS1003;14672;50.250;8.312;2023-04-03T00:12:42;13.33;11.33;3.33
27143;PMS1003;14672;50.250;8.312;2023-04-03T00:15:08;9.33;9.33;4.00
27143;PMS1003;14672;50.250;8.312;2023-04-03T00:17:35;13.00;12.00;5.50
27143;PMS1003;14672;50.250;8.312;2023-04-03T00:20:01;13.33;13.33;4.00
27143;PMS1003;14672;50.250;8.312;2023-04-03T00:22:28;14.50;13.50;5.50
27143;PMS1003;14672;50.250;8.312;2023-04-03T00:24:54;8.67;8.67;2.67
27143;PMS1003;14672;50.250;8.312;2023-04-03T00:27:20;10.50;9.00;2.00
27143;PMS1003;14672;50.250;8.312;2023-04-03T00:29:46;12.50;12.50;6.00
27143;PMS1003;14672;50.250;8.312;2023-04-03T00:32:12;13.33;11.33;4.00
27143;PMS1003;14672;50.250;8.312;2023-04-03T00:34:38;10.50;10.50;2.00
27143;PMS1003;14672;50.250;8.312;2023-04-03T00:37:04;10.00;10.00;4.00
27143;PMS1003;14672;50.250;8.312;2023-04-03T00:39:30;10.67;10.00;4.00
27143;PMS1003;14672;50.250;8.312;2023-04-03T00:41:56;16.00;14.00;5.50
27143;PMS1003;14672;50.250;8.312;2023-04-03T00:45:21;12.00;12.00;4.00
27143;PMS1003;14672;50.250;8.312;2023-04-03T00:47:10;15.50;13.00;4.00
27143;PMS1003;14672;50.250;8.312;2023-04-03T00:49:38;21.50;18.50;9.50
27143;PMS1003;14672;50.250;8.312;2023-04-03T00:52:06;16.00;16.00;6.50
27143;PMS1003;14672;50.250;8.312;2023-04-03T00:54:38;14.00;14.00;4.00
27143;PMS1003;14672;50.250;8.312;2023-04-03T00:57:08;14.00;12.00;5.50
27143;PMS1003;14672;50.250;8.312;2023-04-03T00:59:36;14.00;13.00;4.00
27143;PMS1003;14672;50.250;8.312;2023-04-03T01:02:07;14.50;10.50;4.00
27143;PMS1003;14672;50.250;8.312;2023-04-03T01:04:37;8.67;8.67;2.67
27143;PMS1003;14672;50.250;8.312;2023-04-03T01:07:14;10.50;10.00;4.00
27143;PMS1003;14672;50.250;8.312;2023-04-03T01:09:48;10.00;10.00;3.00
27143;PMS1003;14672;50.250;8.312;2023-04-03T01:15:33;12.50;10.00;4.00
27143;PMS1003;14672;50.250;8.312;2023-04-03T01:18:09;10.00;9.00;3.50
27143;PMS1003;14672;50.250;8.312;2023-04-03T01:20:40;10.00;9.50;2.00
27143;PMS1003;14672;50.250;8.312;2023-04-03T01:26:19;10.50;10.50;4.00
27143;PMS1003;14672;50.250;8.312;2023-04-03T01:28:46;9.50;9.50;2.00
27143;PMS1003;14672;50.250;8.312;2023-04-03T01:31:18;18.00;17.50;6.50
27143;PMS1003;14672;50.250;8.312;2023-04-03T01:33:48;33.50;30.00;16.00
27143;PMS1003;14672;50.250;8.312;2023-04-03T01:36:20;25.75;25.75;12.25
27143;PMS1003;14672;50.250;8.312;2023-04-03T01:38:50;34.00;28.50;12.50
27143;PMS1003;14672;50.250;8.312;2023-04-03T01:41:17;25.00;23.50;10.00
27143;PMS1003;14672;50.250;8.312;2023-04-03T01:43:45;24.75;21.25;8.75
27143;PMS1003;14672;50.250;8.312;2023-04-03T01:46:13;12.25;11.00;3.75
27143;PMS1003;14672;50.250;8.312;2023-04-03T01:48:39;8.00;8.00;1.75
27143;PMS1003;14672;50.250;8.312;2023-04-03T01:51:05;10.00;10.00;3.33
27143;PMS1003;14672;50.250;8.312;2023-04-03T01:53:31;9.33;9.33;2.00
27143;PMS1003;14672;50.250;8.312;2023-04-03T01:55:57;10.67;10.33;4.00
27143;PMS1003;14672;50.250;8.312;2023-04-03T01:58:23;12.33;11.00;4.33
27143;PMS1003;14672;50.250;8.312;2023-04-03T02:00:48;12.00;12.00;4.00
27143;PMS1003;14672;50.250;8.312;2023-04-03T02:03:14;14.00;10.00;4.00
27143;PMS1003;14672;50.250;8.312;2023-04-03T02:05:40;8.00;8.00;2.00
27143;PMS1003;14672;50.250;8.312;2023-04-03T02:08:06;12.67;10.00;4.00
27143;PMS1003;14672;50.250;8.312;2023-04-03T02:10:32;14.00;13.33;4.00
27143;PMS1003;14672;50.250;8.312;2023-04-03T02:12:57;10.67;10.67;2.00
27143;PMS1003;14672;50.250;8.312;2023-04-03T02:15:23;10.00;10.00;4.00
27143;PMS1003;14672;50.250;8.312;2023-04-03T02:17:49;10.00;9.75;3.25
27143;PMS1003;14672;50.250;8.312;2023-04-03T02:20:15;9.75;9.75;1.75
27143;PMS1003;14672;50.250;8.312;2023-04-03T02:22:41;8.00;8.00;2.00
27143;PMS1003;14672;50.250;8.312;2023-04-03T02:25:07;10.67;10.00;1.33
27143;PMS1003;14672;50.250;8.312;2023-04-03T02:27:34;11.50;11.50;2.00
27143;PMS1003;14672;50.250;8.312;2023-04-03T02:30:00;10.00;10.00;2.00
27143;PMS1003;14672;50.250;8.312;2023-04-03T02:32:26;10.00;9.50;4.00
27143;PMS1003;14672;50.250;8.312;2023-04-03T02:34:52;11.00;11.00;3.00
27143;PMS1003;14672;50.250;8.312;2023-04-03T02:37:18;12.00;11.33;2.67
27143;PMS1003;14672;50.250;8.312;2023-04-03T02:39:43;10.00;10.00;4.00
27143;PMS1003;14672;50.250;8.312;2023-04-03T02:42:09;12.00;12.00;6.00
27143;PMS1003;14672;50.250;8.312;2023-04-03T02:44:35;12.67;12.67;6.00
27143;PMS1003;14672;50.250;8.312;2023-04-03T02:47:01;16.00;14.00;6.67
27143;PMS1003;14672;50.250;8.312;2023-04-03T02:49:27;13.25;11.25;3.75
27143;PMS1003;14672;50.250;8.312;2023-04-03T02:51:53;14.00;10.00;4.00
27143;PMS1003;14672;50.250;8.312;2023-04-03T02:54:19;14.00;12.00;4.00
27143;PMS1003;14672;50.250;8.312;2023-04-03T02:56:45;7.75;7.75;1.75
27143;PMS1003;14672;50.250;8.312;2023-04-03T02:59:11;13.00;8.33;2.00
27143;PMS1003;14672;50.250;8.312;2023-04-03T03:01:36;12.33;12.33;4.00
27143;PMS1003;14672;50.250;8.312;2023-04-03T03:04:02;11.67;10.00;2.00
27143;PMS1003;14672;50.250;8.312;2023-04-03T03:06:28;10.00;10.00;4.00
27143;PMS1003;14672;50.250;8.312;2023-04-03T03:08:54;11.67;11.67;4.33
27143;PMS1003;14672;50.250;8.312;2023-04-03T03:11:19;12.00;12.00;4.00
27143;PMS1003;14672;50.250;8.312;2023-04-03T03:13:46;9.50;9.50;4.25
27143;PMS1003;14672;50.250;8.312;2023-04-03T03:16:11;10.00;10.00;4.00
27143;PMS1003;14672;50.250;8.312;2023-04-03T03:18:37;14.00;14.00;7.67
27143;PMS1003;14672;50.250;8.312;2023-04-03T03:21:03;12.00;12.00;4.00
27143;PMS1003;14672;50.250;8.312;2023-04-03T03:23:30;13.25;12.75;5.25
27143;PMS1003;14672;50.250;8.312;2023-04-03T03:26:01;10.75;10.75;3.75
27143;PMS1003;14672;50.250;8.312;2023-04-03T03:28:30;12.25;12.25;4.25
27143;PMS1003;14672;50.250;8.312;2023-04-03T03:30:56;9.25;9.25;2.25
27143;PMS1003;14672;50.250;8.312;2023-04-03T03:33:23;9.75;9.75;3.75
27143;PMS1003;14672;50.250;8.312;2023-04-03T03:35:50;11.75;9.25;1.75
27143;PMS1003;14672;50.250;8.312;2023-04-03T03:38:17;11.75;11.75;2.75
27143;PMS1003;14672;50.250;8.312;2023-04-03T03:40:44;11.75;11.50;3.50
27143;PMS1003;14672;50.250;8.312;2023-04-03T03:43:11;17.25;16.25;5.75
27143;PMS1003;14672;50.250;8.312;2023-04-03T03:45:37;16.00;14.00;4.67
27143;PMS1003;14672;50.250;8.312;2023-04-03T03:48:03;12.00;12.00;3.33
27143;PMS1003;14672;50.250;8.312;2023-04-03T03:50:29;13.25;10.50;2.00
27143;PMS1003;14672;50.250;8.312;2023-04-03T03:52:55;10.25;9.75;3.75
27143;PMS1003;14672;50.250;8.312;2023-04-03T03:55:21;7.67;7.67;1.00
27143;PMS1003;14672;50.250;8.312;2023-04-03T03:57:46;9.00;9.00;2.00
27143;PMS1003;14672;50.250;8.312;2023-04-03T04:00:12;10.00;10.00;4.00
27143;PMS1003;14672;50.250;8.312;2023-04-03T04:02:38;11.25;10.75;1.75
27143;PMS1003;14672;50.250;8.312;2023-04-03T04:05:04;7.33;7.00;2.00
27143;PMS1003;14672;50.250;8.312;2023-04-03T04:07:31;6.25;6.25;1.75
27143;PMS1003;14672;50.250;8.312;2023-04-03T04:09:56;10.00;9.67;2.00
27143;PMS1003;14672;50.250;8.312;2023-04-03T04:12:22;8.00;8.00;2.00
27143;PMS1003;14672;50.250;8.312;2023-04-03T04:14:48;13.33;11.33;4.00
27143;PMS1003;14672;50.250;8.312;2023-04-03T04:17:14;11.00;10.00;4.00
27143;PMS1003;14672;50.250;8.312;2023-04-03T04:19:40;9.33;9.33;2.67
27143;PMS1003;14672;50.250;8.312;2023-04-03T04:22:06;9.75;8.75;2.25
27143;PMS1003;14672;50.250;8.312;2023-04-03T04:24:31;12.00;11.00;3.67
27143;PMS1003;14672;50.250;8.312;2023-04-03T04:26:57;16.00;14.00;8.00
27143;PMS1003;14672;50.250;8.312;2023-04-03T04:29:23;9.33;9.33;2.67
27143;PMS1003;14672;50.250;8.312;2023-04-03T04:31:49;13.00;12.33;4.00
27143;PMS1003;14672;50.250;8.312;2023-04-03T04:34:15;10.00;10.00;4.00
27143;PMS1003;14672;50.250;8.312;2023-04-03T04:36:41;10.00;8.00;2.00
27143;PMS1003;14672;50.250;8.312;2023-04-03T04:39:07;11.00;10.50;3.50
27143;PMS1003;14672;50.250;8.312;2023-04-03T04:41:33;14.00;13.33;4.00
27143;PMS1003;14672;50.250;8.312;2023-04-03T04:43:59;13.75;12.75;4.75
27143;PMS1003;14672;50.250;8.312;2023-04-03T04:46:26;10.50;10.50;4.00
27143;PMS1003;14672;50.250;8.312;2023-04-03T04:48:51;8.00;8.00;2.00
27143;PMS1003;14672;50.250;8.312;2023-04-03T04:51:18;10.00;8.67;2.67
27143;PMS1003;14672;50.250;8.312;2023-04-03T04:53:44;11.00;10.00;2.00
27143;PMS1003;14672;50.250;8.312;2023-04-03T04:56:10;8.50;8.50;2.50
27143;PMS1003;14672;50.250;8.312;2023-04-03T04:58:36;9.50;9.50;4.50
27143;PMS1003;14672;50.250;8.312;2023-04-03T05:01:04;9.50;9.50;3.00
27143;PMS1003;14672;50.250;8.312;2023-04-03T05:03:32;14.50;9.50;2.00
27143;PMS1003;14672;50.250;8.312;2023-04-03T05:05:58;11.00;10.50;3.00
27143;PMS1003;14672;50.250;8.312;2023-04-03T05:08:24;10.00;10.00;2.00
27143;PMS1003;14672;50.250;8.312;2023-04-03T05:10:51;10.50;10.50;2.00
27143;PMS1003;14672;50.250;8.312;2023-04-03T05:13:18;15.50;14.50;3.50
27143;PMS1003;14672;50.250;8.312;2023-04-03T05:15:45;19.50;15.50;5.50
27143;PMS1003;14672;50.250;8.312;2023-04-03T05:18:11;16.50;15.50;8.00
27143;PMS1003;14672;50.250;8.312;2023-04-03T05:20:38;22.50;20.50;10.00
27143;PMS1003;14672;50.250;8.312;2023-04-03T05:23:04;26.00;18.67;6.00
27143;PMS1003;14672;50.250;8.312;2023-04-03T05:25:30;32.00;22.50;9.00
27143;PMS1003;14672;50.250;8.312;2023-04-03T05:27:56;25.00;21.50;8.50
27143;PMS1003;14672;50.250;8.312;2023-04-03T05:30:22;18.67;16.67;6.00
27143;PMS1003;14672;50.250;8.312;2023-04-03T05:32:48;12.00;12.00;2.00
27143;PMS1003;14672;50.250;8.312;2023-04-03T05:35:14;14.00;11.33;2.00
27143;PMS1003;14672;50.250;8.312;2023-04-03T05:37:40;11.33;10.00;2.00
27143;PMS1003;14672;50.250;8.312;2023-04-03T05:40:06;12.50;9.50;2.00
27143;PMS1003;14672;50.250;8.312;2023-04-03T05:42:33;9.50;9.50;2.00
27143;PMS1003;14672;50.250;8.312;2023-04-03T05:44:59;14.00;10.50;2.00
27143;PMS1003;14672;50.250;8.312;2023-04-03T05:47:25;10.00;9.33;2.00
27143;PMS1003;14672;50.250;8.312;2023-04-03T05:49:51;14.67;12.00;4.00
27143;PMS1003;14672;50.250;8.312;2023-04-03T05:54:49;15.50;13.00;4.50
27143;PMS1003;14672;50.250;8.312;2023-04-03T05:57:15;21.00;20.00;6.00
27143;PMS1003;14672;50.250;8.312;2023-04-03T05:59:45;18.00;14.50;6.00
27143;PMS1003;14672;50.250;8.312;2023-04-03T06:02:13;22.00;19.50;4.50
27143;PMS1003;14672;50.250;8.312;2023-04-03T06:04:47;17.00;16.00;6.00
27143;PMS1003;14672;50.250;8.312;2023-04-03T06:07:14;17.00;17.00;6.00
27143;PMS1003;14672;50.250;8.312;2023-04-03T06:09:52;12.50;12.50;4.00
27143;PMS1003;14672;50.250;8.312;2023-04-03T06:12:18;16.00;14.00;6.00
27143;PMS1003;14672;50.250;8.312;2023-04-03T06:14:45;19.00;19.00;7.50
27143;PMS1003;14672;50.250;8.312;2023-04-03T06:17:11;16.50;14.00;5.50
27143;PMS1003;14672;50.250;8.312;2023-04-03T06:19:38;18.00;15.50;4.50
27143;PMS1003;14672;50.250;8.312;2023-04-03T06:22:04;15.50;15.50;7.50
27143;PMS1003;14672;50.250;8.312;2023-04-03T06:24:30;20.00;18.00;8.00
27143;PMS1003;14672;50.250;8.312;2023-04-03T06:26:57;22.50;21.00;8.00
27143;PMS1003;14672;50.250;8.312;2023-04-03T06:29:24;16.00;15.50;7.00
27143;PMS1003;14672;50.250;8.312;2023-04-03T06:31:50;14.00;14.00;6.00
27143;PMS1003;14672;50.250;8.312;2023-04-03T06:34:17;20.00;17.50;6.00
27143;PMS1003;14672;50.250;8.312;2023-04-03T06:36:43;18.00;16.50;6.00
27143;PMS1003;14672;50.250;8.312;2023-04-03T06:39:17;15.00;12.00;4.50
27143;PMS1003;14672;50.250;8.312;2023-04-03T06:41:47;13.50;13.50;6.00
27143;PMS1003;14672;50.250;8.312;2023-04-03T06:44:13;10.50;10.50;3.50
27143;PMS1003;14672;50.250;8.312;2023-04-03T06:46:41;14.50;13.00;5.00
27143;PMS1003;14672;50.250;8.312;2023-04-03T06:49:08;17.50;15.50;6.50
27143;PMS1003;14672;50.250;8.312;2023-04-03T06:51:35;18.00;14.00;4.00
27143;PMS1003;14672;50.250;8.312;2023-04-03T06:54:02;16.50;16.50;7.00
27143;PMS1003;14672;50.250;8.312;2023-04-03T06:56:31;11.50;11.50;4.00
27143;PMS1003;14672;50.250;8.312;2023-04-03T06:58:59;10.00;9.50;4.00
27143;PMS1003;14672;50.250;8.312;2023-04-03T07:01:25;16.67;15.33;5.33
27143;PMS1003;14672;50.250;8.312;2023-04-03T07:03:54;14.00;13.50;4.00
27143;PMS1003;14672;50.250;8.312;2023-04-03T07:06:21;16.50;15.50;8.00
27143;PMS1003;14672;50.250;8.312;2023-04-03T07:08:48;14.50;13.50;5.50
27143;PMS1003;14672;50.250;8.312;2023-04-03T07:11:14;15.50;14.00;4.00
27143;PMS1003;14672;50.250;8.312;2023-04-03T07:13:41;13.50;11.50;4.00
27143;PMS1003;14672;50.250;8.312;2023-04-03T07:16:07;14.00;12.50;4.00
27143;PMS1003;14672;50.250;8.312;2023-04-03T07:18:34;10.00;10.00;3.00
27143;PMS1003;14672;50.250;8.312;2023-04-03T07:21:01;17.50;15.00;5.00
27143;PMS1003;14672;50.250;8.312;2023-04-03T07:23:29;14.50;14.50;6.00
27143;PMS1003;14672;50.250;8.312;2023-04-03T07:25:55;12.00;12.00;5.33
27143;PMS1003;14672;50.250;8.312;2023-04-03T07:28:21;12.00;10.00;4.00
27143;PMS1003;14672;50.250;8.312;2023-04-03T07:31:10;16.00;15.00;4.00
27143;PMS1003;14672;50.250;8.312;2023-04-03T07:33:39;13.50;13.50;6.00
27143;PMS1003;14672;50.250;8.312;2023-04-03T07:36:06;11.00;11.00;4.50
27143;PMS1003;14672;50.250;8.312;2023-04-03T07:38:34;13.00;13.00;5.00
27143;PMS1003;14672;50.250;8.312;2023-04-03T07:41:01;16.00;14.50;6.00
27143;PMS1003;14672;50.250;8.312;2023-04-03T07:43:28;12.50;12.25;5.25
27143;PMS1003;14672;50.250;8.312;2023-04-03T07:45:54;13.25;13.25;3.25
27143;PMS1003;14672;50.250;8.312;2023-04-03T07:48:23;10.00;10.00;3.33
27143;PMS1003;14672;50.250;8.312;2023-04-03T07:50:50;10.00;10.00;3.75
27143;PMS1003;14672;50.250;8.312;2023-04-03T07:53:17;14.75;11.25;3.75
27143;PMS1003;14672;50.250;8.312;2023-04-03T07:55:45;12.25;9.75;2.25
27143;PMS1003;14672;50.250;8.312;2023-04-03T07:58:14;13.75;13.75;5.75
27143;PMS1003;14672;50.250;8.312;2023-04-03T08:00:42;11.25;11.00;3.75
27143;PMS1003;14672;50.250;8.312;2023-04-03T08:03:09;13.75;13.75;4.50
27143;PMS1003;14672;50.250;8.312;2023-04-03T08:05:36;12.25;10.25;3.75
27143;PMS1003;14672;50.250;8.312;2023-04-03T08:08:05;14.00;14.00;5.75
27143;PMS1003;14672;50.250;8.312;2023-04-03T08:10:32;8.50;8.50;2.25
27143;PMS1003;14672;50.250;8.312;2023-04-03T08:12:59;11.75;10.25;3.75
27143;PMS1003;14672;50.250;8.312;2023-04-03T08:15:25;10.75;10.25;4.00
27143;PMS1003;14672;50.250;8.312;2023-04-03T08:17:52;14.00;11.75;3.25
27143;PMS1003;14672;50.250;8.312;2023-04-03T08:20:19;11.25;10.25;1.75
27143;PMS1003;14672;50.250;8.312;2023-04-03T08:22:45;10.50;9.50;3.75
27143;PMS1003;14672;50.250;8.312;2023-04-03T08:25:11;14.00;14.00;4.00
27143;PMS1003;14672;50.250;8.312;2023-04-03T08:27:37;10.25;10.25;3.75
27143;PMS1003;14672;50.250;8.312;2023-04-03T08:30:03;15.67;13.00;3.00
27143;PMS1003;14672;50.250;8.312;2023-04-03T08:32:32;17.50;14.50;6.75
27143;PMS1003;14672;50.250;8.312;2023-04-03T08:35:00;13.75;13.75;3.25
27143;PMS1003;14672;50.250;8.312;2023-04-03T08:37:28;10.50;9.75;3.75
27143;PMS1003;14672;50.250;8.312;2023-04-03T08:39:53;15.67;14.00;4.00
27143;PMS1003;14672;50.250;8.312;2023-04-03T08:45:11;12.25;10.75;3.75
27143;PMS1003;14672;50.250;8.312;2023-04-03T08:50:56;10.25;10.25;3.75
27143;PMS1003;14672;50.250;8.312;2023-04-03T08:53:27;12.75;12.25;3.25
27143;PMS1003;14672;50.250;8.312;2023-04-03T08:55:57;14.50;13.75;4.00
27143;PMS1003;14672;50.250;8.312;2023-04-03T08:58:26;13.50;12.00;5.75
27143;PMS1003;14672;50.250;8.312;2023-04-03T09:01:02;13.75;13.75;5.75
27143;PMS1003;14672;50.250;8.312;2023-04-03T09:03:40;9.75;9.75;3.75
27143;PMS1003;14672;50.250;8.312;2023-04-03T09:06:13;10.50;10.50;2.25
27143;PMS1003;14672;50.250;8.312;2023-04-03T09:23:46;9.75;9.75;3.50
27143;PMS1003;14672;50.250;8.312;2023-04-03T09:26:26;10.25;10.25;3.75
27143;PMS1003;14672;50.250;8.312;2023-04-03T09:29:01;9.50;8.50;3.00
27143;PMS1003;14672;50.250;8.312;2023-04-03T09:31:38;9.50;9.50;3.00
27143;PMS1003;14672;50.250;8.312;2023-04-03T09:34:12;8.50;8.50;3.00
27143;PMS1003;14672;50.250;8.312;2023-04-03T09:37:00;9.00;9.00;2.50
27143;PMS1003;14672;50.250;8.312;2023-04-03T09:39:31;13.00;13.00;3.25
27143;PMS1003;14672;50.250;8.312;2023-04-03T09:42:16;10.00;10.00;1.75
27143;PMS1003;14672;50.250;8.312;2023-04-03T09:44:55;8.75;8.25;2.25
27143;PMS1003;14672;50.250;8.312;2023-04-03T09:52:37;9.00;9.00;1.00
27143;PMS1003;14672;50.250;8.312;2023-04-03T09:57:42;17.50;11.00;3.00
27143;PMS1003;14672;50.250;8.312;2023-04-03T10:00:19;12.75;11.25;2.50
27143;PMS1003;14672;50.250;8.312;2023-04-03T10:02:54;9.50;9.00;2.00
27143;PMS1003;14672;50.250;8.312;2023-04-03T10:05:30;10.00;10.00;3.00
27143;PMS1003;14672;50.250;8.312;2023-04-03T10:08:19;11.75;10.00;2.50
27143;PMS1003;14672;50.250;8.312;2023-04-03T10:11:07;10.00;10.00;1.00
27143;PMS1003;14672;50.250;8.312;2023-04-03T10:16:45;8.00;8.00;3.00
27143;PMS1003;14672;50.250;8.312;2023-04-03T10:22:18;14.00;11.50;2.50
27143;PMS1003;14672;50.250;8.312;2023-04-03T10:25:48;12.00;12.00;5.00
27143;PMS1003;14672;50.250;8.312;2023-04-03T10:28:27;9.25;9.00;3.00
27143;PMS1003;14672;50.250;8.312;2023-04-03T10:31:09;8.50;8.50;1.00
27143;PMS1003;14672;50.250;8.312;2023-04-03T10:48:51;8.75;8.75;1.00
27143;PMS1003;14672;50.250;8.312;2023-04-03T10:54:09;8.25;8.25;1.00
27143;PMS1003;14672;50.250;8.312;2023-04-03T10:57:07;9.75;9.75;3.00
27143;PMS1003;14672;50.250;8.312;2023-04-03T10:59:36;9.50;9.50;2.00
27143;PMS1003;14672;50.250;8.312;2023-04-03T11:04:52;10.00;9.25;1.50
27143;PMS1003;14672;50.250;8.312;2023-04-03T11:07:27;8.50;8.50;2.00
27143;PMS1003;14672;50.250;8.312;2023-04-03T11:10:08;9.50;7.50;1.00
27143;PMS1003;14672;50.250;8.312;2023-04-03T11:13:21;11.50;10.00;3.00
27143;PMS1003;14672;50.250;8.312;2023-04-03T11:16:00;10.00;10.00;3.00
27143;PMS1003;14672;50.250;8.312;2023-04-03T11:18:37;8.00;8.00;3.00
27143;PMS1003;14672;50.250;8.312;2023-04-03T11:21:31;9.00;9.00;3.00
27143;PMS1003;14672;50.250;8.312;2023-04-03T11:24:05;12.50;11.50;4.00
27143;PMS1003;14672;50.250;8.312;2023-04-03T11:26:45;12.75;11.25;3.00
27143;PMS1003;14672;50.250;8.312;2023-04-03T11:29:15;8.25;8.25;2.50
27143;PMS1003;14672;50.250;8.312;2023-04-03T11:35:05;7.25;7.25;1.00
27143;PMS1003;14672;50.250;8.312;2023-04-03T11:37:41;8.00;8.00;3.00
27143;PMS1003;14672;50.250;8.312;2023-04-03T11:42:49;14.25;12.25;3.25
27143;PMS1003;14672;50.250;8.312;2023-04-03T11:46:04;9.25;9.25;3.00
27143;PMS1003;14672;50.250;8.312;2023-04-03T11:51:00;11.00;11.00;4.25
27143;PMS1003;14672;50.250;8.312;2023-04-03T11:53:53;10.00;9.75;3.00
27143;PMS1003;14672;50.250;8.312;2023-04-03T12:04:16;9.00;9.00;4.00
27143;PMS1003;14672;50.250;8.312;2023-04-03T12:09:25;11.25;10.25;3.00
27143;PMS1003;14672;50.250;8.312;2023-04-03T12:11:57;10.00;9.25;3.00
27143;PMS1003;14672;50.250;8.312;2023-04-03T12:14:45;9.75;9.00;3.00
27143;PMS1003;14672;50.250;8.312;2023-04-03T12:17:18;9.00;9.00;3.50
27143;PMS1003;14672;50.250;8.312;2023-04-03T12:19:52;11.00;11.00;4.00
27143;PMS1003;14672;50.250;8.312;2023-04-03T12:22:19;7.75;7.75;3.00
27143;PMS1003;14672;50.250;8.312;2023-04-03T12:24:47;7.75;7.75;2.50
27143;PMS1003;14672;50.250;8.312;2023-04-03T12:32:36;11.75;9.50;4.00
27143;PMS1003;14672;50.250;8.312;2023-04-03T12:35:29;7.00;7.00;3.00
27143;PMS1003;14672;50.250;8.312;2023-04-03T12:47:02;7.75;7.75;3.00
27143;PMS1003;14672;50.250;8.312;2023-04-03T12:49:47;9.75;7.75;3.00
27143;PMS1003;14672;50.250;8.312;2023-04-03T12:54:59;7.75;7.75;3.00
27143;PMS1003;14672;50.250;8.312;2023-04-03T12:57:29;9.00;8.50;3.00
27143;PMS1003;14672;50.250;8.312;2023-04-03T12:59:57;7.00;7.00;1.00
27143;PMS1003;14672;50.250;8.312;2023-04-03T13:02:32;8.00;8.00;3.00
27143;PMS1003;14672;50.250;8.312;2023-04-03T13:05:05;6.25;6.25;1.00
27143;PMS1003;14672;50.250;8.312;2023-04-03T13:07:35;6.75;6.50;3.00
27143;PMS1003;14672;50.250;8.312;2023-04-03T13:12:33;7.50;7.00;1.50
27143;PMS1003;14672;50.250;8.312;2023-04-03T13:15:40;9.00;8.50;2.00
27143;PMS1003;14672;50.250;8.312;2023-04-03T13:20:51;7.00;7.00;2.75
27143;PMS1003;14672;50.250;8.312;2023-04-03T13:23:19;5.75;5.75;2.25
27143;PMS1003;14672;50.250;8.312;2023-04-03T13:25:46;8.75;7.50;1.50
27143;PMS1003;14672;50.250;8.312;2023-04-03T13:28:15;7.00;6.50;2.00
27143;PMS1003;14672;50.250;8.312;2023-04-03T13:31:07;7.00;7.00;1.00
27143;PMS1003;14672;50.250;8.312;2023-04-03T13:34:10;7.50;7.50;2.75
27143;PMS1003;14672;50.250;8.312;2023-04-03T13:36:43;11.75;11.00;3.75
27143;PMS1003;14672;50.250;8.312;2023-04-03T13:41:48;7.00;7.00;1.00
27143;PMS1003;14672;50.250;8.312;2023-04-03T13:46:56;5.50;5.50;1.00
27143;PMS1003;14672;50.250;8.312;2023-04-03T13:49:42;5.75;5.75;1.00
27143;PMS1003;14672;50.250;8.312;2023-04-03T13:52:29;6.00;6.00;1.00
27143;PMS1003;14672;50.250;8.312;2023-04-03T13:55:22;9.50;7.75;2.00
27143;PMS1003;14672;50.250;8.312;2023-04-03T14:03:23;5.25;5.25;1.50
27143;PMS1003;14672;50.250;8.312;2023-04-03T14:06:10;9.50;8.00;2.00
27143;PMS1003;14672;50.250;8.312;2023-04-03T14:08:40;7.00;5.00;1.00
27143;PMS1003;14672;50.250;8.312;2023-04-03T14:11:26;4.50;4.50;1.00
27143;PMS1003;14672;50.250;8.312;2023-04-03T14:13:57;7.00;7.00;2.00
27143;PMS1003;14672;50.250;8.312;2023-04-03T14:16:30;7.00;7.00;1.50
27143;PMS1003;14672;50.250;8.312;2023-04-03T14:19:01;8.50;8.00;2.00
27143;PMS1003;14672;50.250;8.312;2023-04-03T14:21:28;7.00;7.00;1.25
27143;PMS1003;14672;50.250;8.312;2023-04-03T14:23:54;9.00;8.25;2.00
27143;PMS1003;14672;50.250;8.312;2023-04-03T14:26:21;6.33;5.67;1.00
27143;PMS1003;14672;50.250;8.312;2023-04-03T14:28:52;6.25;6.25;2.00
27143;PMS1003;14672;50.250;8.312;2023-04-03T14:31:19;5.75;5.75;1.00
27143;PMS1003;14672;50.250;8.312;2023-04-03T14:33:46;6.75;4.75;1.00
27143;PMS1003;14672;50.250;8.312;2023-04-03T14:36:16;6.67;6.67;1.00
27143;PMS1003;14672;50.250;8.312;2023-04-03T14:38:50;5.00;5.00;1.00
27143;PMS1003;14672;50.250;8.312;2023-04-03T14:41:17;6.75;5.25;1.00
27143;PMS1003;14672;50.250;8.312;2023-04-03T14:43:46;7.50;7.50;1.00
27143;PMS1003;14672;50.250;8.312;2023-04-03T14:46:17;19.25;16.25;7.00
27143;PMS1003;14672;50.250;8.312;2023-04-03T14:48:47;12.50;12.50;4.50
27143;PMS1003;14672;50.250;8.312;2023-04-03T14:51:13;11.25;11.25;5.00
27143;PMS1003;14672;50.250;8.312;2023-04-03T14:53:41;10.25;10.00;2.00
27143;PMS1003;14672;50.250;8.312;2023-04-03T14:56:17;8.00;7.75;2.00
27143;PMS1003;14672;50.250;8.312;2023-04-03T14:58:49;16.50;15.50;7.75
27143;PMS1003;14672;50.250;8.312;2023-04-03T15:01:21;8.00;7.00;1.75
27143;PMS1003;14672;50.250;8.312;2023-04-03T15:03:47;8.33;8.33;2.00
27143;PMS1003;14672;50.250;8.312;2023-04-03T15:06:13;7.67;7.67;3.33
27143;PMS1003;14672;50.250;8.312;2023-04-03T15:08:40;6.50;6.50;1.00
27143;PMS1003;14672;50.250;8.312;2023-04-03T15:11:08;7.00;6.50;1.00
27143;PMS1003;14672;50.250;8.312;2023-04-03T15:13:35;11.00;8.75;2.25
27143;PMS1003;14672;50.250;8.312;2023-04-03T15:16:02;5.00;5.00;0.75
27143;PMS1003;14672;50.250;8.312;2023-04-03T15:18:30;7.00;7.00;1.25
27143;PMS1003;14672;50.250;8.312;2023-04-03T15:21:02;5.75;5.50;1.00
27143;PMS1003;14672;50.250;8.312;2023-04-03T15:23:29;6.50;6.50;1.25
27143;PMS1003;14672;50.250;8.312;2023-04-03T15:25:55;7.33;7.33;1.33
27143;PMS1003;14672;50.250;8.312;2023-04-03T15:28:27;7.00;7.00;2.00
27143;PMS1003;14672;50.250;8.312;2023-04-03T15:31:03;9.75;7.50;2.75
27143;PMS1003;14672;50.250;8.312;2023-04-03T15:33:30;7.00;7.00;2.75
27143;PMS1003;14672;50.250;8.312;2023-04-03T15:35:57;7.25;7.00;2.75
27143;PMS1003;14672;50.250;8.312;2023-04-03T15:38:23;12.00;11.75;5.00
27143;PMS1003;14672;50.250;8.312;2023-04-03T15:40:50;7.00;7.00;3.25
27143;PMS1003;14672;50.250;8.312;2023-04-03T15:43:16;14.50;12.25;5.50
27143;PMS1003;14672;50.250;8.312;2023-04-03T15:45:42;8.75;8.00;2.00
27143;PMS1003;14672;50.250;8.312;2023-04-03T15:48:09;10.00;7.50;2.75
27143;PMS1003;14672;50.250;8.312;2023-04-03T15:50:36;9.25;9.25;2.75
27143;PMS1003;14672;50.250;8.312;2023-04-03T15:53:03;9.50;9.50;3.00
27143;PMS1003;14672;50.250;8.312;2023-04-03T15:55:30;5.75;5.75;1.50
27143;PMS1003;14672;50.250;8.312;2023-04-03T15:57:59;5.75;5.75;1.00
27143;PMS1003;14672;50.250;8.312;2023-04-03T16:00:26;9.00;9.00;2.00
27143;PMS1003;14672;50.250;8.312;2023-04-03T16:02:55;9.25;8.00;3.00
27143;PMS1003;14672;50.250;8.312;2023-04-03T16:05:26;7.00;6.75;2.50
27143;PMS1003;14672;50.250;8.312;2023-04-03T16:07:52;10.00;8.75;2.50
27143;PMS1003;14672;50.250;8.312;2023-04-03T16:10:20;10.00;7.75;2.75
27143;PMS1003;14672;50.250;8.312;2023-04-03T16:12:46;4.00;4.00;0.75
27143;PMS1003;14672;50.250;8.312;2023-04-03T16:15:13;7.25;7.25;2.75
27143;PMS1003;14672;50.250;8.312;2023-04-03T16:17:39;6.75;6.75;1.50